sensor_id;sensor_type;location;lat;lon;timestamp;P1;durP1;ratioP1;P2;durP2;ratioP2
48791;SDS011;34587;48.816;9.420;2024-01-15T00:00:40;40.78;;;12.32;;
48791;SDS011;34587;48.816;9.420;2024-01-15T00:03:06;35.05;;;11.82;;
48791;SDS011;34587;48.816;9.420;2024-01-15T00:05:31;32.55;;;11.82;;
48791;SDS011;34587;48.816;9.420;2024-01-15T00:07:56;29.50;;;9.73;;
48791;SDS011;34587;48.816;9.420;2024-01-15T00:10:22;32.25;;;11.07;;
48791;SDS011;34587;48.816;9.420;2024-01-15T00:12:48;37.85;;;11.85;;
48791;SDS011;34587;48.816;9.420;2024-01-15T00:15:13;36.97;;;12.13;;
48791;SDS011;34587;48.816;9.420;2024-01-15T00:17:38;30.33;;;10.98;;
48791;SDS011;34587;48.816;9.420;2024-01-15T00:20:04;36.72;;;12.98;;
48791;SDS011;34587;48.816;9.420;2024-01-15T00:22:30;30.95;;;11.30;;
48791;SDS011;34587;48.816;9.420;2024-01-15T00:24:55;29.63;;;9.82;;
48791;SDS011;34587;48.816;9.420;2024-01-15T00:27:21;39.03;;;12.20;;
48791;SDS011;34587;48.816;9.420;2024-01-15T00:29:46;35.67;;;11.15;;
48791;SDS011;34587;48.816;9.420;2024-01-15T00:32:12;32.70;;;10.02;;
48791;SDS011;34587;48.816;9.420;2024-01-15T00:34:37;27.63;;;9.82;;
48791;SDS011;34587;48.816;9.420;2024-01-15T00:37:02;35.30;;;11.80;;
48791;SDS011;34587;48.816;9.420;2024-01-15T00:39:28;37.15;;;12.32;;
48791;SDS011;34587;48.816;9.420;2024-01-15T00:41:53;37.42;;;12.52;;
48791;SDS011;34587;48.816;9.420;2024-01-15T00:44:19;29.23;;;10.02;;
48791;SDS011;34587;48.816;9.420;2024-01-15T00:46:44;27.42;;;10.23;;
48791;SDS011;34587;48.816;9.420;2024-01-15T00:49:10;30.95;;;10.38;;
48791;SDS011;34587;48.816;9.420;2024-01-15T00:51:36;31.55;;;10.60;;
48791;SDS011;34587;48.816;9.420;2024-01-15T00:54:02;35.42;;;11.38;;
48791;SDS011;34587;48.816;9.420;2024-01-15T00:56:27;30.52;;;11.13;;
48791;SDS011;34587;48.816;9.420;2024-01-15T00:58:52;31.20;;;10.35;;
48791;SDS011;34587;48.816;9.420;2024-01-15T05:16:15;14.23;;;6.20;;
48791;SDS011;34587;48.816;9.420;2024-01-15T05:18:41;16.70;;;5.50;;
48791;SDS011;34587;48.816;9.420;2024-01-15T05:21:06;17.08;;;5.38;;
48791;SDS011;34587;48.816;9.420;2024-01-15T05:23:31;15.38;;;5.20;;
48791;SDS011;34587;48.816;9.420;2024-01-15T05:25:57;15.70;;;5.28;;
48791;SDS011;34587;48.816;9.420;2024-01-15T05:28:22;13.55;;;5.43;;
48791;SDS011;34587;48.816;9.420;2024-01-15T05:30:47;21.52;;;6.40;;
48791;SDS011;34587;48.816;9.420;2024-01-15T05:33:15;17.35;;;6.47;;
48791;SDS011;34587;48.816;9.420;2024-01-15T05:35:40;15.82;;;5.70;;
48791;SDS011;34587;48.816;9.420;2024-01-15T05:38:06;17.63;;;7.38;;
48791;SDS011;34587;48.816;9.420;2024-01-15T05:40:31;17.65;;;7.57;;
48791;SDS011;34587;48.816;9.420;2024-01-15T05:42:56;19.75;;;6.43;;
48791;SDS011;34587;48.816;9.420;2024-01-15T05:45:21;24.52;;;7.68;;
48791;SDS011;34587;48.816;9.420;2024-01-15T05:47:47;23.33;;;7.03;;
48791;SDS011;34587;48.816;9.420;2024-01-15T05:50:12;20.30;;;8.50;;
48791;SDS011;34587;48.816;9.420;2024-01-15T05:52:37;16.83;;;7.40;;
48791;SDS011;34587;48.816;9.420;2024-01-15T05:55:03;14.77;;;5.35;;
48791;SDS011;34587;48.816;9.420;2024-01-15T05:57:29;19.42;;;7.20;;
48791;SDS011;34587;48.816;9.420;2024-01-15T05:59:54;18.13;;;6.80;;
48791;SDS011;34587;48.816;9.420;2024-01-15T06:02:20;15.35;;;5.95;;
48791;SDS011;34587;48.816;9.420;2024-01-15T06:04:45;21.20;;;7.93;;
48791;SDS011;34587;48.816;9.420;2024-01-15T06:07:11;18.08;;;6.38;;
48791;SDS011;34587;48.816;9.420;2024-01-15T06:09:36;18.45;;;6.28;;
48791;SDS011;34587;48.816;9.420;2024-01-15T06:12:02;15.73;;;6.75;;
48791;SDS011;34587;48.816;9.420;2024-01-15T06:14:27;21.80;;;6.93;;
48791;SDS011;34587;48.816;9.420;2024-01-15T06:16:52;17.25;;;7.32;;
48791;SDS011;34587;48.816;9.420;2024-01-15T06:19:18;21.75;;;6.65;;
48791;SDS011;34587;48.816;9.420;2024-01-15T06:21:43;13.20;;;6.65;;
48791;SDS011;34587;48.816;9.420;2024-01-15T06:24:08;16.13;;;6.50;;
48791;SDS011;34587;48.816;9.420;2024-01-15T06:26:35;13.48;;;5.32;;
48791;SDS011;34587;48.816;9.420;2024-01-15T06:29:00;13.65;;;5.50;;
48791;SDS011;34587;48.816;9.420;2024-01-15T06:31:25;12.00;;;6.45;;
48791;SDS011;34587;48.816;9.420;2024-01-15T06:33:50;16.33;;;7.47;;
48791;SDS011;34587;48.816;9.420;2024-01-15T06:36:16;14.60;;;6.68;;
48791;SDS011;34587;48.816;9.420;2024-01-15T06:38:42;15.48;;;6.43;;
48791;SDS011;34587;48.816;9.420;2024-01-15T06:41:09;15.88;;;5.75;;
48791;SDS011;34587;48.816;9.420;2024-01-15T06:43:34;12.45;;;4.90;;
48791;SDS011;34587;48.816;9.420;2024-01-15T06:46:00;15.45;;;5.88;;
48791;SDS011;34587;48.816;9.420;2024-01-15T06:48:25;16.25;;;5.88;;
48791;SDS011;34587;48.816;9.420;2024-01-15T06:50:50;18.38;;;7.45;;
48791;SDS011;34587;48.816;9.420;2024-01-15T06:53:15;14.93;;;6.55;;
48791;SDS011;34587;48.816;9.420;2024-01-15T06:55:41;13.57;;;4.93;;
48791;SDS011;34587;48.816;9.420;2024-01-15T06:58:06;20.45;;;7.00;;
48791;SDS011;34587;48.816;9.420;2024-01-15T07:00:31;18.38;;;7.57;;
48791;SDS011;34587;48.816;9.420;2024-01-15T07:02:56;17.30;;;5.07;;
48791;SDS011;34587;48.816;9.420;2024-01-15T07:05:22;14.30;;;5.65;;
48791;SDS011;34587;48.816;9.420;2024-01-15T07:07:48;15.88;;;6.38;;
48791;SDS011;34587;48.816;9.420;2024-01-15T07:10:14;19.70;;;6.28;;
48791;SDS011;34587;48.816;9.420;2024-01-15T07:12:41;8.35;;;4.65;;
48791;SDS011;34587;48.816;9.420;2024-01-15T07:15:07;11.10;;;5.15;;
48791;SDS011;34587;48.816;9.420;2024-01-15T07:17:33;12.95;;;5.85;;
48791;SDS011;34587;48.816;9.420;2024-01-15T07:19:58;10.55;;;4.88;;
48791;SDS011;34587;48.816;9.420;2024-01-15T07:22:24;21.25;;;5.88;;
48791;SDS011;34587;48.816;9.420;2024-01-15T07:24:49;13.93;;;4.75;;
48791;SDS011;34587;48.816;9.420;2024-01-15T07:27:14;13.57;;;5.60;;
48791;SDS011;34587;48.816;9.420;2024-01-15T07:29:40;12.07;;;4.97;;
48791;SDS011;34587;48.816;9.420;2024-01-15T07:32:05;14.02;;;6.18;;
48791;SDS011;34587;48.816;9.420;2024-01-15T07:34:32;18.25;;;6.80;;
48791;SDS011;34587;48.816;9.420;2024-01-15T07:36:57;21.60;;;7.55;;
48791;SDS011;34587;48.816;9.420;2024-01-15T07:39:23;16.38;;;6.50;;
48791;SDS011;34587;48.816;9.420;2024-01-15T07:41:49;12.75;;;6.13;;
48791;SDS011;34587;48.816;9.420;2024-01-15T07:44:15;17.25;;;7.35;;
48791;SDS011;34587;48.816;9.420;2024-01-15T07:46:43;23.58;;;7.75;;
48791;SDS011;34587;48.816;9.420;2024-01-15T07:49:10;19.73;;;8.07;;
48791;SDS011;34587;48.816;9.420;2024-01-15T07:51:35;16.00;;;6.30;;
48791;SDS011;34587;48.816;9.420;2024-01-15T07:54:00;15.68;;;6.90;;
48791;SDS011;34587;48.816;9.420;2024-01-15T07:56:25;15.05;;;7.03;;
48791;SDS011;34587;48.816;9.420;2024-01-15T07:58:52;16.08;;;6.13;;
48791;SDS011;34587;48.816;9.420;2024-01-15T08:01:17;15.63;;;6.30;;
48791;SDS011;34587;48.816;9.420;2024-01-15T08:03:42;20.80;;;6.60;;
48791;SDS011;34587;48.816;9.420;2024-01-15T08:06:08;15.82;;;7.05;;
48791;SDS011;34587;48.816;9.420;2024-01-15T08:08:34;9.80;;;5.50;;
48791;SDS011;34587;48.816;9.420;2024-01-15T08:11:00;12.00;;;5.72;;
48791;SDS011;34587;48.816;9.420;2024-01-15T08:13:26;10.45;;;5.32;;
48791;SDS011;34587;48.816;9.420;2024-01-15T08:15:51;15.80;;;6.55;;
48791;SDS011;34587;48.816;9.420;2024-01-15T08:18:17;11.98;;;5.40;;
48791;SDS011;34587;48.816;9.420;2024-01-15T08:20:42;12.35;;;5.55;;
48791;SDS011;34587;48.816;9.420;2024-01-15T08:23:07;21.80;;;7.72;;
48791;SDS011;34587;48.816;9.420;2024-01-15T08:25:33;26.27;;;11.23;;
48791;SDS011;34587;48.816;9.420;2024-01-15T08:27:58;26.95;;;10.43;;
48791;SDS011;34587;48.816;9.420;2024-01-15T08:30:23;13.70;;;6.53;;
48791;SDS011;34587;48.816;9.420;2024-01-15T08:32:55;20.67;;;6.43;;
48791;SDS011;34587;48.816;9.420;2024-01-15T08:35:21;25.15;;;8.80;;
48791;SDS011;34587;48.816;9.420;2024-01-15T08:37:50;38.40;;;13.55;;
48791;SDS011;34587;48.816;9.420;2024-01-15T08:40:16;34.10;;;12.43;;
48791;SDS011;34587;48.816;9.420;2024-01-15T08:42:42;39.65;;;13.60;;
48791;SDS011;34587;48.816;9.420;2024-01-15T08:45:07;22.90;;;8.95;;
48791;SDS011;34587;48.816;9.420;2024-01-15T08:47:33;28.80;;;10.45;;
48791;SDS011;34587;48.816;9.420;2024-01-15T08:49:59;25.23;;;9.48;;
48791;SDS011;34587;48.816;9.420;2024-01-15T08:52:25;15.13;;;7.75;;
48791;SDS011;34587;48.816;9.420;2024-01-15T08:54:50;28.58;;;8.68;;
48791;SDS011;34587;48.816;9.420;2024-01-15T08:57:15;22.38;;;8.18;;
48791;SDS011;34587;48.816;9.420;2024-01-15T08:59:41;14.82;;;7.53;;
48791;SDS011;34587;48.816;9.420;2024-01-15T09:02:06;10.65;;;5.20;;
48791;SDS011;34587;48.816;9.420;2024-01-15T09:04:32;15.98;;;5.97;;
48791;SDS011;34587;48.816;9.420;2024-01-15T09:06:57;15.30;;;5.82;;
48791;SDS011;34587;48.816;9.420;2024-01-15T09:09:23;18.85;;;6.38;;
48791;SDS011;34587;48.816;9.420;2024-01-15T09:11:48;16.98;;;5.50;;
48791;SDS011;34587;48.816;9.420;2024-01-15T09:14:13;17.77;;;5.32;;
48791;SDS011;34587;48.816;9.420;2024-01-15T09:16:39;12.32;;;4.88;;
48791;SDS011;34587;48.816;9.420;2024-01-15T09:19:04;11.23;;;4.38;;
48791;SDS011;34587;48.816;9.420;2024-01-15T09:21:30;16.58;;;4.68;;
48791;SDS011;34587;48.816;9.420;2024-01-15T09:23:55;11.15;;;5.10;;
48791;SDS011;34587;48.816;9.420;2024-01-15T09:26:20;8.60;;;3.83;;
48791;SDS011;34587;48.816;9.420;2024-01-15T09:28:46;11.25;;;4.20;;
48791;SDS011;34587;48.816;9.420;2024-01-15T09:31:11;12.10;;;4.50;;
48791;SDS011;34587;48.816;9.420;2024-01-15T09:33:36;7.97;;;4.22;;
48791;SDS011;34587;48.816;9.420;2024-01-15T09:36:02;9.10;;;3.38;;
48791;SDS011;34587;48.816;9.420;2024-01-15T09:38:28;13.88;;;4.20;;
48791;SDS011;34587;48.816;9.420;2024-01-15T09:40:54;9.13;;;3.58;;
48791;SDS011;34587;48.816;9.420;2024-01-15T09:43:20;7.07;;;3.25;;
48791;SDS011;34587;48.816;9.420;2024-01-15T09:45:46;10.43;;;3.20;;
48791;SDS011;34587;48.816;9.420;2024-01-15T09:48:11;7.95;;;3.92;;
48791;SDS011;34587;48.816;9.420;2024-01-15T09:50:37;9.57;;;3.20;;
48791;SDS011;34587;48.816;9.420;2024-01-15T09:53:03;4.68;;;2.55;;
48791;SDS011;34587;48.816;9.420;2024-01-15T09:55:30;9.90;;;2.83;;
48791;SDS011;34587;48.816;9.420;2024-01-15T09:57:57;6.63;;;3.50;;
48791;SDS011;34587;48.816;9.420;2024-01-15T10:00:26;6.63;;;3.35;;
48791;SDS011;34587;48.816;9.420;2024-01-15T10:02:52;7.28;;;3.60;;
48791;SDS011;34587;48.816;9.420;2024-01-15T10:05:17;7.82;;;4.13;;
48791;SDS011;34587;48.816;9.420;2024-01-15T10:07:43;8.88;;;3.97;;
48791;SDS011;34587;48.816;9.420;2024-01-15T10:10:10;11.00;;;4.22;;
48791;SDS011;34587;48.816;9.420;2024-01-15T10:12:36;12.50;;;4.57;;
48791;SDS011;34587;48.816;9.420;2024-01-15T10:15:03;7.70;;;3.38;;
48791;SDS011;34587;48.816;9.420;2024-01-15T10:17:29;10.27;;;2.70;;
48791;SDS011;34587;48.816;9.420;2024-01-15T10:19:56;8.52;;;3.60;;
48791;SDS011;34587;48.816;9.420;2024-01-15T10:22:21;12.52;;;3.05;;
48791;SDS011;34587;48.816;9.420;2024-01-15T10:24:46;13.68;;;5.40;;
48791;SDS011;34587;48.816;9.420;2024-01-15T10:27:12;7.50;;;3.00;;
48791;SDS011;34587;48.816;9.420;2024-01-15T10:29:37;6.32;;;2.60;;
48791;SDS011;34587;48.816;9.420;2024-01-15T10:32:05;11.38;;;2.88;;
48791;SDS011;34587;48.816;9.420;2024-01-15T10:34:33;10.32;;;3.47;;
48791;SDS011;34587;48.816;9.420;2024-01-15T10:36:58;10.70;;;3.63;;
48791;SDS011;34587;48.816;9.420;2024-01-15T10:39:24;5.20;;;2.95;;
48791;SDS011;34587;48.816;9.420;2024-01-15T10:41:50;7.95;;;2.40;;
48791;SDS011;34587;48.816;9.420;2024-01-15T10:44:18;11.73;;;4.18;;
48791;SDS011;34587;48.816;9.420;2024-01-15T10:46:44;5.60;;;3.15;;
48791;SDS011;34587;48.816;9.420;2024-01-15T10:49:11;9.52;;;3.10;;
48791;SDS011;34587;48.816;9.420;2024-01-15T10:51:36;14.70;;;3.03;;
48791;SDS011;34587;48.816;9.420;2024-01-15T10:54:02;6.93;;;3.17;;
48791;SDS011;34587;48.816;9.420;2024-01-15T10:56:30;7.07;;;3.38;;
48791;SDS011;34587;48.816;9.420;2024-01-15T10:58:58;13.82;;;3.05;;
48791;SDS011;34587;48.816;9.420;2024-01-15T11:01:24;4.35;;;2.72;;
48791;SDS011;34587;48.816;9.420;2024-01-15T11:03:49;4.30;;;2.58;;
48791;SDS011;34587;48.816;9.420;2024-01-15T11:06:18;12.25;;;4.88;;
48791;SDS011;34587;48.816;9.420;2024-01-15T11:08:50;13.77;;;3.75;;
48791;SDS011;34587;48.816;9.420;2024-01-15T11:11:17;11.05;;;2.65;;
48791;SDS011;34587;48.816;9.420;2024-01-15T11:13:48;5.45;;;2.70;;
48791;SDS011;34587;48.816;9.420;2024-01-15T11:16:16;10.50;;;3.58;;
48791;SDS011;34587;48.816;9.420;2024-01-15T11:18:43;5.88;;;2.58;;
48791;SDS011;34587;48.816;9.420;2024-01-15T11:21:26;8.98;;;2.72;;
48791;SDS011;34587;48.816;9.420;2024-01-15T11:23:55;6.30;;;3.17;;
48791;SDS011;34587;48.816;9.420;2024-01-15T11:26:38;4.55;;;2.42;;
48791;SDS011;34587;48.816;9.420;2024-01-15T11:34:20;2.85;;;2.13;;
48791;SDS011;34587;48.816;9.420;2024-01-15T11:41:52;8.05;;;3.05;;
48791;SDS011;34587;48.816;9.420;2024-01-15T11:44:21;6.50;;;3.05;;
48791;SDS011;34587;48.816;9.420;2024-01-15T11:46:51;14.13;;;2.92;;
48791;SDS011;34587;48.816;9.420;2024-01-15T11:49:34;3.97;;;2.40;;
48791;SDS011;34587;48.816;9.420;2024-01-15T11:52:02;5.53;;;2.92;;
48791;SDS011;34587;48.816;9.420;2024-01-15T11:54:29;8.57;;;3.08;;
48791;SDS011;34587;48.816;9.420;2024-01-15T11:57:00;9.00;;;2.92;;
48791;SDS011;34587;48.816;9.420;2024-01-15T11:59:34;7.70;;;2.80;;
48791;SDS011;34587;48.816;9.420;2024-01-15T12:01:59;4.57;;;2.88;;
48791;SDS011;34587;48.816;9.420;2024-01-15T12:04:25;6.88;;;3.13;;
48791;SDS011;34587;48.816;9.420;2024-01-15T12:06:51;5.80;;;2.55;;
48791;SDS011;34587;48.816;9.420;2024-01-15T12:09:19;8.15;;;2.80;;
48791;SDS011;34587;48.816;9.420;2024-01-15T12:11:46;9.80;;;3.08;;
48791;SDS011;34587;48.816;9.420;2024-01-15T12:14:20;6.43;;;3.10;;
48791;SDS011;34587;48.816;9.420;2024-01-15T12:16:46;6.03;;;2.80;;
48791;SDS011;34587;48.816;9.420;2024-01-15T12:19:11;8.13;;;2.97;;
48791;SDS011;34587;48.816;9.420;2024-01-15T12:21:38;5.10;;;2.53;;
48791;SDS011;34587;48.816;9.420;2024-01-15T12:24:06;6.57;;;2.70;;
48791;SDS011;34587;48.816;9.420;2024-01-15T12:26:32;8.60;;;3.00;;
48791;SDS011;34587;48.816;9.420;2024-01-15T12:28:58;6.57;;;2.92;;
48791;SDS011;34587;48.816;9.420;2024-01-15T12:31:27;7.32;;;3.50;;
48791;SDS011;34587;48.816;9.420;2024-01-15T12:33:52;5.05;;;2.70;;
48791;SDS011;34587;48.816;9.420;2024-01-15T12:36:21;9.63;;;3.28;;
48791;SDS011;34587;48.816;9.420;2024-01-15T12:38:46;5.70;;;2.83;;
48791;SDS011;34587;48.816;9.420;2024-01-15T12:41:12;4.22;;;3.22;;
48791;SDS011;34587;48.816;9.420;2024-01-15T12:43:37;6.90;;;2.50;;
48791;SDS011;34587;48.816;9.420;2024-01-15T12:46:02;4.82;;;2.50;;
48791;SDS011;34587;48.816;9.420;2024-01-15T12:48:28;3.75;;;2.85;;
48791;SDS011;34587;48.816;9.420;2024-01-15T12:50:53;7.10;;;3.33;;
48791;SDS011;34587;48.816;9.420;2024-01-15T12:53:20;5.72;;;2.92;;
48791;SDS011;34587;48.816;9.420;2024-01-15T12:55:45;4.90;;;2.67;;
48791;SDS011;34587;48.816;9.420;2024-01-15T12:58:11;8.07;;;3.50;;
48791;SDS011;34587;48.816;9.420;2024-01-15T13:00:36;10.20;;;2.83;;
48791;SDS011;34587;48.816;9.420;2024-01-15T13:03:01;5.88;;;2.80;;
48791;SDS011;34587;48.816;9.420;2024-01-15T13:05:28;7.05;;;3.35;;
48791;SDS011;34587;48.816;9.420;2024-01-15T13:07:56;5.53;;;2.92;;
48791;SDS011;34587;48.816;9.420;2024-01-15T13:10:21;6.10;;;3.08;;
48791;SDS011;34587;48.816;9.420;2024-01-15T13:12:46;7.35;;;3.25;;
48791;SDS011;34587;48.816;9.420;2024-01-15T13:15:12;4.88;;;3.00;;
48791;SDS011;34587;48.816;9.420;2024-01-15T13:17:38;6.18;;;3.83;;
48791;SDS011;34587;48.816;9.420;2024-01-15T13:20:05;6.65;;;3.22;;
48791;SDS011;34587;48.816;9.420;2024-01-15T13:22:31;8.27;;;3.92;;
48791;SDS011;34587;48.816;9.420;2024-01-15T13:24:57;7.40;;;3.17;;
48791;SDS011;34587;48.816;9.420;2024-01-15T13:27:23;9.02;;;3.63;;
48791;SDS011;34587;48.816;9.420;2024-01-15T13:29:48;7.15;;;3.65;;
48791;SDS011;34587;48.816;9.420;2024-01-15T13:32:13;5.93;;;2.90;;
48791;SDS011;34587;48.816;9.420;2024-01-15T13:34:47;5.43;;;3.25;;
48791;SDS011;34587;48.816;9.420;2024-01-15T13:37:12;6.53;;;4.38;;
48791;SDS011;34587;48.816;9.420;2024-01-15T13:39:38;7.47;;;3.22;;
48791;SDS011;34587;48.816;9.420;2024-01-15T13:42:03;5.18;;;2.97;;
48791;SDS011;34587;48.816;9.420;2024-01-15T13:44:28;7.07;;;3.25;;
48791;SDS011;34587;48.816;9.420;2024-01-15T13:46:54;6.20;;;3.53;;
48791;SDS011;34587;48.816;9.420;2024-01-15T13:49:19;8.75;;;4.18;;
48791;SDS011;34587;48.816;9.420;2024-01-15T13:51:44;8.18;;;3.60;;
48791;SDS011;34587;48.816;9.420;2024-01-15T13:54:10;5.78;;;3.40;;
48791;SDS011;34587;48.816;9.420;2024-01-15T13:56:35;12.93;;;4.80;;
48791;SDS011;34587;48.816;9.420;2024-01-15T13:59:01;12.38;;;5.03;;
48791;SDS011;34587;48.816;9.420;2024-01-15T14:01:27;10.18;;;3.67;;
48791;SDS011;34587;48.816;9.420;2024-01-15T14:03:53;11.90;;;3.63;;
48791;SDS011;34587;48.816;9.420;2024-01-15T14:06:18;9.95;;;3.70;;
48791;SDS011;34587;48.816;9.420;2024-01-15T14:08:44;13.25;;;4.18;;
48791;SDS011;34587;48.816;9.420;2024-01-15T14:11:09;6.43;;;3.70;;
48791;SDS011;34587;48.816;9.420;2024-01-15T14:13:35;12.10;;;3.63;;
48791;SDS011;34587;48.816;9.420;2024-01-15T14:16:00;5.32;;;3.38;;
48791;SDS011;34587;48.816;9.420;2024-01-15T14:18:26;14.80;;;5.43;;
48791;SDS011;34587;48.816;9.420;2024-01-15T14:20:52;10.88;;;3.55;;
48791;SDS011;34587;48.816;9.420;2024-01-15T14:23:20;7.47;;;3.67;;
48791;SDS011;34587;48.816;9.420;2024-01-15T14:25:46;5.40;;;3.70;;
48791;SDS011;34587;48.816;9.420;2024-01-15T14:28:11;5.28;;;2.78;;
48791;SDS011;34587;48.816;9.420;2024-01-15T14:30:37;6.20;;;3.53;;
48791;SDS011;34587;48.816;9.420;2024-01-15T14:33:02;6.28;;;3.63;;
48791;SDS011;34587;48.816;9.420;2024-01-15T14:35:27;8.52;;;3.25;;
48791;SDS011;34587;48.816;9.420;2024-01-15T14:37:53;7.32;;;3.50;;
48791;SDS011;34587;48.816;9.420;2024-01-15T14:40:18;9.43;;;3.28;;
48791;SDS011;34587;48.816;9.420;2024-01-15T14:42:43;3.75;;;2.80;;
48791;SDS011;34587;48.816;9.420;2024-01-15T14:45:09;5.70;;;3.10;;
48791;SDS011;34587;48.816;9.420;2024-01-15T14:47:37;6.70;;;3.28;;
48791;SDS011;34587;48.816;9.420;2024-01-15T14:50:03;5.15;;;3.55;;
48791;SDS011;34587;48.816;9.420;2024-01-15T14:52:28;7.60;;;3.65;;
48791;SDS011;34587;48.816;9.420;2024-01-15T14:54:53;5.30;;;3.33;;
48791;SDS011;34587;48.816;9.420;2024-01-15T14:57:19;6.80;;;3.33;;
48791;SDS011;34587;48.816;9.420;2024-01-15T14:59:44;8.02;;;3.38;;
48791;SDS011;34587;48.816;9.420;2024-01-15T15:02:09;5.47;;;4.20;;
48791;SDS011;34587;48.816;9.420;2024-01-15T15:04:35;7.75;;;3.50;;
48791;SDS011;34587;48.816;9.420;2024-01-15T15:07:00;14.60;;;5.35;;
48791;SDS011;34587;48.816;9.420;2024-01-15T15:09:25;9.40;;;4.35;;
48791;SDS011;34587;48.816;9.420;2024-01-15T15:11:51;8.73;;;4.97;;
48791;SDS011;34587;48.816;9.420;2024-01-15T15:14:17;13.73;;;5.45;;
48791;SDS011;34587;48.816;9.420;2024-01-15T15:16:42;9.60;;;6.32;;
48791;SDS011;34587;48.816;9.420;2024-01-15T15:19:07;13.40;;;5.38;;
48791;SDS011;34587;48.816;9.420;2024-01-15T15:21:33;12.82;;;5.35;;
48791;SDS011;34587;48.816;9.420;2024-01-15T15:23:58;10.13;;;5.00;;
48791;SDS011;34587;48.816;9.420;2024-01-15T15:26:25;10.65;;;5.25;;
48791;SDS011;34587;48.816;9.420;2024-01-15T15:28:50;11.73;;;6.22;;
48791;SDS011;34587;48.816;9.420;2024-01-15T15:31:15;19.70;;;6.55;;
48791;SDS011;34587;48.816;9.420;2024-01-15T15:33:41;16.73;;;6.60;;
48791;SDS011;34587;48.816;9.420;2024-01-15T15:36:06;13.32;;;5.20;;
48791;SDS011;34587;48.816;9.420;2024-01-15T15:38:32;14.50;;;5.63;;
48791;SDS011;34587;48.816;9.420;2024-01-15T15:40:57;12.95;;;5.93;;
48791;SDS011;34587;48.816;9.420;2024-01-15T15:43:24;11.52;;;6.63;;
48791;SDS011;34587;48.816;9.420;2024-01-15T15:45:50;10.25;;;6.07;;
48791;SDS011;34587;48.816;9.420;2024-01-15T15:48:15;12.98;;;5.82;;
48791;SDS011;34587;48.816;9.420;2024-01-15T15:50:40;9.95;;;5.65;;
48791;SDS011;34587;48.816;9.420;2024-01-15T15:53:05;19.15;;;6.88;;
48791;SDS011;34587;48.816;9.420;2024-01-15T15:55:31;13.18;;;5.70;;
48791;SDS011;34587;48.816;9.420;2024-01-15T15:57:56;15.45;;;6.63;;
48791;SDS011;34587;48.816;9.420;2024-01-15T16:00:22;10.10;;;5.72;;
48791;SDS011;34587;48.816;9.420;2024-01-15T16:02:47;15.02;;;5.90;;
48791;SDS011;34587;48.816;9.420;2024-01-15T16:05:12;13.30;;;6.15;;
48791;SDS011;34587;48.816;9.420;2024-01-15T16:07:38;10.95;;;6.03;;
48791;SDS011;34587;48.816;9.420;2024-01-15T16:10:03;14.02;;;6.05;;
48791;SDS011;34587;48.816;9.420;2024-01-15T16:12:29;9.00;;;4.70;;
48791;SDS011;34587;48.816;9.420;2024-01-15T16:14:54;11.90;;;6.00;;
48791;SDS011;34587;48.816;9.420;2024-01-15T16:17:19;9.70;;;5.18;;
48791;SDS011;34587;48.816;9.420;2024-01-15T16:19:45;6.68;;;4.03;;
48791;SDS011;34587;48.816;9.420;2024-01-15T16:22:10;11.70;;;4.55;;
48791;SDS011;34587;48.816;9.420;2024-01-15T16:24:36;11.20;;;4.25;;
48791;SDS011;34587;48.816;9.420;2024-01-15T16:27:01;11.10;;;4.68;;
48791;SDS011;34587;48.816;9.420;2024-01-15T16:29:27;7.28;;;4.30;;
48791;SDS011;34587;48.816;9.420;2024-01-15T16:31:52;9.45;;;5.10;;
48791;SDS011;34587;48.816;9.420;2024-01-15T16:34:17;15.52;;;5.60;;
48791;SDS011;34587;48.816;9.420;2024-01-15T16:36:43;12.60;;;5.43;;
48791;SDS011;34587;48.816;9.420;2024-01-15T16:39:08;9.43;;;4.53;;
48791;SDS011;34587;48.816;9.420;2024-01-15T16:41:33;16.65;;;6.53;;
48791;SDS011;34587;48.816;9.420;2024-01-15T16:43:59;19.00;;;6.97;;
48791;SDS011;34587;48.816;9.420;2024-01-15T16:46:24;14.38;;;5.15;;
48791;SDS011;34587;48.816;9.420;2024-01-15T16:48:50;8.50;;;4.97;;
48791;SDS011;34587;48.816;9.420;2024-01-15T16:51:15;8.38;;;4.93;;
48791;SDS011;34587;48.816;9.420;2024-01-15T16:53:40;15.07;;;7.38;;
48791;SDS011;34587;48.816;9.420;2024-01-15T16:56:06;9.43;;;4.82;;
48791;SDS011;34587;48.816;9.420;2024-01-15T16:58:31;8.38;;;4.70;;
48791;SDS011;34587;48.816;9.420;2024-01-15T17:00:56;12.63;;;4.20;;
48791;SDS011;34587;48.816;9.420;2024-01-15T17:03:22;8.10;;;4.88;;
48791;SDS011;34587;48.816;9.420;2024-01-15T17:05:47;13.32;;;4.85;;
48791;SDS011;34587;48.816;9.420;2024-01-15T17:08:12;14.15;;;4.85;;
48791;SDS011;34587;48.816;9.420;2024-01-15T17:10:37;10.90;;;5.47;;
48791;SDS011;34587;48.816;9.420;2024-01-15T17:13:03;14.75;;;5.15;;
48791;SDS011;34587;48.816;9.420;2024-01-15T17:15:29;7.47;;;4.38;;
48791;SDS011;34587;48.816;9.420;2024-01-15T17:17:55;12.07;;;5.78;;
48791;SDS011;34587;48.816;9.420;2024-01-15T17:20:21;11.93;;;6.45;;
48791;SDS011;34587;48.816;9.420;2024-01-15T17:22:46;17.20;;;7.35;;
48791;SDS011;34587;48.816;9.420;2024-01-15T17:25:11;16.63;;;6.72;;
48791;SDS011;34587;48.816;9.420;2024-01-15T17:27:37;11.82;;;6.15;;
48791;SDS011;34587;48.816;9.420;2024-01-15T17:30:03;8.70;;;5.18;;
48791;SDS011;34587;48.816;9.420;2024-01-15T17:32:30;13.55;;;5.30;;
48791;SDS011;34587;48.816;9.420;2024-01-15T17:34:55;9.55;;;5.28;;
48791;SDS011;34587;48.816;9.420;2024-01-15T17:37:20;9.60;;;4.82;;
48791;SDS011;34587;48.816;9.420;2024-01-15T17:39:45;11.93;;;5.55;;
48791;SDS011;34587;48.816;9.420;2024-01-15T17:42:11;22.95;;;6.72;;
48791;SDS011;34587;48.816;9.420;2024-01-15T17:44:36;8.05;;;4.78;;
48791;SDS011;34587;48.816;9.420;2024-01-15T17:47:01;10.98;;;4.55;;
48791;SDS011;34587;48.816;9.420;2024-01-15T17:49:27;7.00;;;4.72;;
48791;SDS011;34587;48.816;9.420;2024-01-15T17:51:52;6.20;;;3.70;;
48791;SDS011;34587;48.816;9.420;2024-01-15T17:54:18;10.27;;;4.65;;
48791;SDS011;34587;48.816;9.420;2024-01-15T17:56:43;10.82;;;4.13;;
48791;SDS011;34587;48.816;9.420;2024-01-15T17:59:09;9.60;;;4.22;;
48791;SDS011;34587;48.816;9.420;2024-01-15T18:01:34;9.00;;;4.43;;
48791;SDS011;34587;48.816;9.420;2024-01-15T18:04:01;7.32;;;4.03;;
48791;SDS011;34587;48.816;9.420;2024-01-15T18:06:28;13.13;;;5.20;;
48791;SDS011;34587;48.816;9.420;2024-01-15T18:08:54;19.50;;;6.07;;
48791;SDS011;34587;48.816;9.420;2024-01-15T18:11:19;17.75;;;7.22;;
48791;SDS011;34587;48.816;9.420;2024-01-15T18:13:45;9.10;;;4.88;;
48791;SDS011;34587;48.816;9.420;2024-01-15T18:16:11;8.20;;;5.03;;
48791;SDS011;34587;48.816;9.420;2024-01-15T18:18:37;6.20;;;4.35;;
48791;SDS011;34587;48.816;9.420;2024-01-15T18:21:02;6.72;;;4.38;;
48791;SDS011;34587;48.816;9.420;2024-01-15T18:23:28;7.43;;;3.85;;
48791;SDS011;34587;48.816;9.420;2024-01-15T18:25:54;12.68;;;5.93;;
48791;SDS011;34587;48.816;9.420;2024-01-15T18:28:19;6.72;;;4.30;;
48791;SDS011;34587;48.816;9.420;2024-01-15T18:30:44;11.57;;;5.00;;
48791;SDS011;34587;48.816;9.420;2024-01-15T18:33:10;8.70;;;4.03;;
48791;SDS011;34587;48.816;9.420;2024-01-15T18:35:35;11.98;;;4.70;;
48791;SDS011;34587;48.816;9.420;2024-01-15T18:38:02;7.13;;;4.05;;
48791;SDS011;34587;48.816;9.420;2024-01-15T18:40:27;5.65;;;3.78;;
48791;SDS011;34587;48.816;9.420;2024-01-15T18:42:57;7.00;;;4.05;;
48791;SDS011;34587;48.816;9.420;2024-01-15T18:45:22;7.30;;;4.18;;
48791;SDS011;34587;48.816;9.420;2024-01-15T18:47:47;6.97;;;3.60;;
48791;SDS011;34587;48.816;9.420;2024-01-15T18:50:12;7.25;;;3.72;;
48791;SDS011;34587;48.816;9.420;2024-01-15T18:52:38;6.82;;;3.75;;
48791;SDS011;34587;48.816;9.420;2024-01-15T18:55:03;27.40;;;10.43;;